createdAt,value
2022-12-11T00:03:25.457Z,98463.72
2022-12-11T00:08:17.193Z,98467.19
2022-12-11T00:13:08.977Z,98477.88
2022-12-11T00:18:00.634Z,98481.13
2022-12-11T00:22:52.425Z,98480.47
2022-12-11T00:27:46.580Z,98479.84
2022-12-11T00:32:38.201Z,98479.84
2022-12-11T00:37:30.702Z,98468.06
2022-12-11T00:42:22.435Z,98458.59
2022-12-11T00:47:14.140Z,98466.59
2022-12-11T00:52:05.822Z,98462.28
2022-12-11T00:56:57.475Z,98460.63
2022-12-11T01:01:49.194Z,98459.63
2022-12-11T01:06:40.941Z,98476.91
2022-12-11T01:11:32.917Z,98458.41
2022-12-11T01:16:24.684Z,98461.06
2022-12-11T01:21:16.494Z,98450.56
2022-12-11T01:26:10.443Z,98453.44
2022-12-11T01:31:02.392Z,98459.81
2022-12-11T01:35:54.541Z,98456.66
2022-12-11T01:40:53.146Z,98457.03
2022-12-11T01:45:49.781Z,98457.41
2022-12-11T01:50:47.621Z,98461.88
2022-12-11T01:55:40.993Z,98461.41
2022-12-11T02:00:32.816Z,98453.75
2022-12-11T02:05:24.492Z,98450.84
2022-12-11T02:10:16.591Z,98439.44
2022-12-11T02:15:17.236Z,98448.66
2022-12-11T02:20:29.613Z,98451.22
2022-12-11T02:25:30.782Z,98443.50
2022-12-11T02:30:23.887Z,98443.41
2022-12-11T02:35:21.756Z,98439.81
2022-12-11T02:40:17.923Z,98447.00
2022-12-11T02:45:11.410Z,98443.50
2022-12-11T02:50:09.943Z,98442.03
2022-12-11T02:55:03.531Z,98442.88
2022-12-11T02:59:55.444Z,98440.56
2022-12-11T03:04:48.222Z,98452.91
2022-12-11T03:09:40.517Z,98434.84
2022-12-11T03:14:32.297Z,98434.75
2022-12-11T03:19:29.148Z,98434.88
2022-12-11T03:24:30.354Z,98425.47
2022-12-11T03:29:30.218Z,98427.94
2022-12-11T03:34:33.938Z,98425.19
2022-12-11T03:39:30.956Z,98420.94
2022-12-11T03:44:24.907Z,98415.03
2022-12-11T03:49:20.035Z,98421.47
2022-12-11T03:54:12.053Z,98417.81
2022-12-11T03:59:03.885Z,98424.41
2022-12-11T04:03:55.878Z,98424.22
2022-12-11T04:08:47.877Z,98422.28
2022-12-11T04:13:41.214Z,98422.94
2022-12-11T04:18:51.792Z,98421.91
2022-12-11T04:24:02.557Z,98418.44
2022-12-11T04:28:54.318Z,98425.25
2022-12-11T04:33:46.518Z,98430.22
2022-12-11T04:38:38.217Z,98428.53
2022-12-11T04:43:30.104Z,98421.34
2022-12-11T04:48:21.887Z,98419.06
2022-12-11T04:53:13.674Z,98421.53
2022-12-11T04:58:05.550Z,98421.72
2022-12-11T05:02:57.327Z,98418.25
2022-12-11T05:07:49.185Z,98408.56
2022-12-11T05:12:40.876Z,98405.09
2022-12-11T05:17:32.580Z,98420.53
2022-12-11T05:22:24.386Z,98409.84
2022-12-11T05:27:16.245Z,98417.69
2022-12-11T05:32:08.291Z,98413.81
2022-12-11T05:37:00.027Z,98416.00
2022-12-11T05:41:51.888Z,98414.00
2022-12-11T05:46:43.624Z,98404.97
2022-12-11T05:51:35.573Z,98410.13
2022-12-11T05:56:29.961Z,98405.16
2022-12-11T06:01:29.752Z,98409.47
2022-12-11T06:06:22.695Z,98403.31
2022-12-11T06:11:17.277Z,98405.16
2022-12-11T06:16:11.756Z,98413.53
2022-12-11T06:21:14.805Z,98406.75
2022-12-11T06:26:07.208Z,98399.31
2022-12-11T06:30:59.935Z,98407.03
2022-12-11T06:35:52.247Z,98405.28
2022-12-11T06:40:44.149Z,98400.25
2022-12-11T06:45:38.265Z,98413.97
2022-12-11T06:50:30.013Z,98401.81
2022-12-11T06:55:21.867Z,98398.53
2022-12-11T07:00:14.423Z,98407.16
2022-12-11T07:05:06.697Z,98405.53
2022-12-11T07:10:04.086Z,98405.78
2022-12-11T07:14:59.632Z,98405.22
2022-12-11T07:19:51.395Z,98406.22
2022-12-11T07:24:43.277Z,98417.75
2022-12-11T07:29:34.926Z,98419.75
2022-12-11T07:34:26.663Z,98422.41
2022-12-11T07:39:18.634Z,98422.22
2022-12-11T07:44:10.654Z,98421.41
2022-12-11T07:49:02.918Z,98425.94
2022-12-11T07:54:13.077Z,98431.47
2022-12-11T07:59:06.359Z,98420.97
2022-12-11T08:03:58.104Z,98428.13
2022-12-11T08:08:49.781Z,98433.94
2022-12-11T08:13:42.545Z,98435.13
2022-12-11T08:18:35.591Z,98439.66
2022-12-11T08:23:27.304Z,98442.13
2022-12-11T08:28:19.022Z,98431.28
2022-12-11T08:33:10.787Z,98430.06
2022-12-11T08:38:02.501Z,98425.56
2022-12-11T08:42:54.254Z,98429.06
2022-12-11T08:47:46.252Z,98433.38
2022-12-11T08:52:37.951Z,98443.03
2022-12-11T08:57:29.832Z,98441.00
2022-12-11T09:02:21.889Z,98439.81
2022-12-11T09:07:13.666Z,98439.44
2022-12-11T09:12:05.586Z,98439.72
2022-12-11T09:16:57.423Z,98451.09
2022-12-11T09:21:49.280Z,98441.53
2022-12-11T09:26:42.316Z,98439.47
2022-12-11T09:31:36.500Z,98439.28
2022-12-11T09:36:29.713Z,98435.44
2022-12-11T09:41:21.652Z,98438.53
2022-12-11T09:46:15.661Z,98437.97
2022-12-11T09:51:19.109Z,98444.59
2022-12-11T09:56:26.185Z,98444.22
2022-12-11T10:01:27.228Z,98451.66
2022-12-11T10:06:42.286Z,98450.47
2022-12-11T10:12:02.035Z,98459.50
2022-12-11T10:17:27.764Z,98458.50
2022-12-11T10:22:23.963Z,98457.66
2022-12-11T10:27:21.499Z,98458.31
2022-12-11T10:32:24.480Z,98456.63
2022-12-11T10:37:16.286Z,98449.44
2022-12-11T10:42:19.579Z,98440.47
2022-12-11T10:47:14.642Z,98447.53
2022-12-11T10:52:43.334Z,98441.91
2022-12-11T10:57:37.288Z,98441.72
2022-12-11T11:02:33.058Z,98441.16
2022-12-11T11:07:33.252Z,98430.44
2022-12-11T11:12:28.078Z,98433.19
2022-12-11T11:17:20.060Z,98434.88
2022-12-11T11:22:18.387Z,98425.66
2022-12-11T11:27:34.855Z,98434.50
2022-12-11T11:32:30.304Z,98430.16
2022-12-11T11:37:31.964Z,98434.94
2022-12-11T11:42:43.957Z,98433.53
2022-12-11T11:47:43.134Z,98426.16
2022-12-11T11:52:53.699Z,98424.13
2022-12-11T11:57:52.839Z,98413.66
2022-12-11T12:02:47.194Z,98407.13
2022-12-11T12:07:51.754Z,98410.22
2022-12-11T12:13:23.935Z,98411.41
2022-12-11T12:18:43.803Z,98412.25
2022-12-11T12:23:59.980Z,98409.13
2022-12-11T12:29:07.011Z,98414.94
2022-12-11T12:34:20.314Z,98419.63
2022-12-11T12:39:24.536Z,98416.56
2022-12-11T12:44:20.287Z,98405.28
2022-12-11T12:49:17.763Z,98410.91
2022-12-11T12:54:15.319Z,98400.44
2022-12-11T12:59:19.644Z,98402.13
2022-12-11T13:04:54.325Z,98389.81
2022-12-11T13:09:41.108Z,98399.34
2022-12-11T13:14:33.825Z,98400.84
2022-12-11T13:19:28.546Z,98408.91
2022-12-11T13:24:20.225Z,98407.69
2022-12-11T13:29:36.729Z,98399.44
2022-12-11T13:34:33.644Z,98405.03
2022-12-11T13:39:28.135Z,98409.78
2022-12-11T13:44:27.368Z,98400.28
2022-12-11T13:49:51.023Z,98398.47
2022-12-11T13:54:51.469Z,98392.91
2022-12-11T13:59:48.514Z,98404.00
2022-12-11T14:04:40.887Z,98402.31
2022-12-11T14:09:32.794Z,98395.09
2022-12-11T14:14:42.144Z,98397.31
2022-12-11T14:19:33.836Z,98389.69
2022-12-11T14:24:26.145Z,98396.69
2022-12-11T14:29:32.440Z,98398.97
2022-12-11T14:34:28.735Z,98402.47
2022-12-11T14:39:26.146Z,98401.47
2022-12-11T14:44:21.424Z,98403.94
2022-12-11T14:49:44.700Z,98406.22
2022-12-11T14:54:40.778Z,98412.38
2022-12-11T14:59:39.452Z,98413.22
2022-12-11T15:04:33.419Z,98416.31
2022-12-11T15:09:36.770Z,98415.66
2022-12-11T15:14:35.048Z,98414.63
2022-12-11T15:19:33.283Z,98408.81
2022-12-11T15:24:32.435Z,98415.44
2022-12-11T15:29:32.242Z,98418.09
2022-12-11T15:34:24.133Z,98418.09
2022-12-11T15:39:15.980Z,98423.66
2022-12-11T15:44:18.828Z,98421.78
2022-12-11T15:49:13.850Z,98421.19
2022-12-11T15:54:05.806Z,98418.69
2022-12-11T15:59:03.507Z,98422.56
2022-12-11T16:03:58.164Z,98422.75
2022-12-11T16:08:53.782Z,98423.34
2022-12-11T16:13:45.584Z,98422.84
2022-12-11T16:18:37.252Z,98427.97
2022-12-11T16:23:29.812Z,98426.88
2022-12-11T16:28:21.554Z,98425.75
2022-12-11T16:33:13.801Z,98422.06
2022-12-11T16:38:05.574Z,98416.34
2022-12-11T16:42:57.732Z,98409.13
2022-12-11T16:47:49.775Z,98419.06
2022-12-11T16:52:43.038Z,98414.16
2022-12-11T16:57:35.987Z,98420.13
2022-12-11T17:02:27.780Z,98418.03
2022-12-11T17:07:19.778Z,98417.22
2022-12-11T17:12:11.503Z,98425.44
2022-12-11T17:17:03.396Z,98432.00
2022-12-11T17:21:56.220Z,98427.28
2022-12-11T17:26:48.142Z,98423.53
2022-12-11T17:31:40.546Z,98419.97
2022-12-11T17:36:32.413Z,98425.53
2022-12-11T17:41:24.425Z,98425.91
2022-12-11T17:46:16.278Z,98434.16
2022-12-11T17:51:09.703Z,98423.03
2022-12-11T17:56:03.915Z,98432.06
2022-12-11T18:00:58.094Z,98427.75
2022-12-11T18:05:52.626Z,98438.38
2022-12-11T18:10:44.364Z,98439.59
2022-12-11T18:15:37.194Z,98437.31
2022-12-11T18:20:29.070Z,98436.47
2022-12-11T18:25:21.051Z,98432.97
2022-12-11T18:30:14.568Z,98433.38
2022-12-11T18:35:06.803Z,98437.06
2022-12-11T18:39:58.647Z,98443.44
2022-12-11T18:44:50.404Z,98438.09
2022-12-11T18:49:42.408Z,98429.22
2022-12-11T18:54:34.298Z,98441.38
2022-12-11T18:59:26.664Z,98437.91
2022-12-11T19:04:18.631Z,98441.19
2022-12-11T19:09:12.892Z,98439.16
2022-12-11T19:14:05.194Z,98431.50
2022-12-11T19:19:02.927Z,98434.66
2022-12-11T19:23:54.807Z,98434.06
2022-12-11T19:28:47.070Z,98437.19
2022-12-11T19:33:40.592Z,98433.69
2022-12-11T19:38:32.428Z,98436.34
2022-12-11T19:43:24.234Z,98440.44
2022-12-11T19:48:16.451Z,98447.44
2022-12-11T19:53:11.725Z,98442.28
2022-12-11T19:58:03.510Z,98450.50
2022-12-11T20:02:55.180Z,98444.06
2022-12-11T20:07:47.005Z,98456.13
2022-12-11T20:12:38.982Z,98456.53
2022-12-11T20:17:31.517Z,98452.22
2022-12-11T20:22:23.469Z,98459.13
2022-12-11T20:27:15.425Z,98454.19
2022-12-11T20:32:07.765Z,98454.56
2022-12-11T20:37:00.558Z,98460.28
2022-12-11T20:41:52.437Z,98444.81
2022-12-11T20:46:44.231Z,98444.00
2022-12-11T20:51:35.945Z,98446.66
2022-12-11T20:56:30.046Z,98450.34
2022-12-11T21:01:25.150Z,98470.06
2022-12-11T21:06:31.325Z,98461.78
2022-12-11T21:11:24.112Z,98465.59
2022-12-11T21:16:15.961Z,98463.22
2022-12-11T21:21:07.778Z,98465.81
2022-12-11T21:25:59.665Z,98470.13
2022-12-11T21:30:51.316Z,98469.50
2022-12-11T21:35:43.157Z,98468.28
2022-12-11T21:40:35.182Z,98464.97
2022-12-11T21:45:59.390Z,98475.84
2022-12-11T21:50:38.561Z,98470.44
2022-12-11T21:55:30.397Z,98463.72
2022-12-11T22:00:23.651Z,98467.16
2022-12-11T22:05:15.867Z,98468.44
2022-12-11T22:10:08.400Z,98473.28
2022-12-11T22:15:00.351Z,98475.69
2022-12-11T22:19:52.131Z,98475.81
2022-12-11T22:24:44.078Z,98481.56
2022-12-11T22:29:36.041Z,98475.69
2022-12-11T22:34:27.830Z,98484.06
2022-12-11T22:39:19.763Z,98475.13
2022-12-11T22:44:20.199Z,98478.69
2022-12-11T22:49:12.106Z,98480.91
2022-12-11T22:54:04.672Z,98488.63
2022-12-11T22:58:59.782Z,98484.00
2022-12-11T23:03:52.568Z,98491.50
2022-12-11T23:08:44.776Z,98498.06
2022-12-11T23:13:36.589Z,98488.81
2022-12-11T23:18:28.251Z,98498.63
2022-12-11T23:23:20.019Z,98500.47
2022-12-11T23:28:11.883Z,98506.44
2022-12-11T23:33:03.850Z,98505.44
2022-12-11T23:37:55.624Z,98501.78
2022-12-11T23:42:47.321Z,98499.47
2022-12-11T23:47:39.010Z,98516.56
2022-12-11T23:52:30.682Z,98510.88
2022-12-11T23:57:22.363Z,98514.03
